RJSARJSK

Guest
Details From RJSA - AOMORI
To RJSK - AKITA
Flight Number -
Tags generated
Created
Modified
Stats Distance 71 nm / 132 km
Max Altitude 5,200 ft / 1,585 m
Waypoints 3
Social Downloads 0
Likes 0
Share VATSIM

Download

Looking for another format? Having issues loading an existing format? Contact us
Advertisement - Login to hide

Notes

Basic altitude profile: - Ascent Rate: 2500ft/min - Ascent Speed: 250kts - Cruise Altitude: 35000ft - Cruise Speed: 420kts - Descent Rate: 1500ft/min - Descent Speed: 250kts Options: - Use NATs: yes - Use PACOTS: yes - Use low airways: yes - Use high airways: yes

Route

RJSA YACHI RJSK

ID Type Via Altitude Latitude Longitude Leg Dist Tot Dist Heading (true) Name
O RJSA APT - 0 ft / 0 m 40.73327˚ 140.68859˚ - 0 nm - AOMORI
YACHI FIX - 5,200 ft / 1,585 m 40.49040˚ 140.66805˚ 14 nm 14 nm 184° / 184° -
O RJSK APT - 0 ft / 0 m 39.61564˚ 140.21867˚ 56 nm 71 nm 202° / 201° AKITA

Altitude Profile

Advertisement - Login to hide

RJSA

Details ICAO RJSA (AOJ)
Name AOMORI
Region Japan
Timezone Asia/Tokyo (UTC+9.0)
Stats Elevation 664 ft / 202 m (AMSL)
Location 40.733272° 140.688594°
Runways 1
Magnetic Variation 8.959° W

METAR

RJSA 220100Z 27006KT 240V320 CAVOK 21/M04 Q1020

Decode

TAF

TAF RJSA 212315Z 2200/2306 26008KT 9999 FEW030 BECMG 2203/2205 04004KT BECMG 2210/2212 20008KT

Decode

Departure Runways

ID Width Length Bearing (true) Bearing (mag) Surface Threshold Offset Overrun Length
06 200 ft / 61 m 9,838 ft / 2,999 m 51.79° 60.75° Asphalt 0 ft / 0 m 200 ft / 61 m
24 200 ft / 61 m 9,838 ft / 2,999 m 231.81° 240.77° Asphalt 0 ft / 0 m 200 ft / 61 m

RJSK

Details ICAO RJSK (AXT)
Name AKITA
Region Japan
Timezone Asia/Tokyo (UTC+9.0)
Stats Elevation 313 ft / 95 m (AMSL)
Location 39.615645° 140.218665°
Runways 1
Magnetic Variation 8.687° W

METAR

RJSK 220100Z 16004KT 120V210 CAVOK 19/07 Q1019

Decode

TAF

TAF RJSK 212305Z 2200/2306 14004KT 9999 FEW030 BECMG 2201/2203 30008KT BECMG 2210/2212 14008KT

Decode

Destination Runways

ID Width Length Bearing (true) Bearing (mag) Surface Threshold Offset Overrun Length
10 200 ft / 61 m 8,184 ft / 2,495 m 96.62° 105.31° Asphalt 0 ft / 0 m 200 ft / 61 m
28 200 ft / 61 m 8,184 ft / 2,495 m 276.64° 285.33° Asphalt 0 ft / 0 m 200 ft / 61 m

Approach Navaids

Runway Type Ident Frequency Range Bearing (true) Bearing (mag) Slope Elevation
28 Localiser IUW 108.90 MHz 18 nm / 33 km 276.62° 285.31° - 286 ft / 87 m (AMSL)
28 Glidescope IUW 108.90 MHz 10 nm / 19 km 276.63° 285.32° 3.00° 300 ft / 91 m (AMSL)
28 DME IUW 108.90 MHz 18 nm / 33 km - - - 328 ft / 100 m (AMSL)

Popular Alternatives